createdAt,value
2022-08-27T00:02:20.763Z,7.25
2022-08-27T00:04:51.813Z,7.88
2022-08-27T00:07:20.476Z,8.20
2022-08-27T00:09:49.031Z,8.73
2022-08-27T00:12:17.808Z,8.30
2022-08-27T00:14:46.637Z,7.45
2022-08-27T00:17:16.144Z,7.45
2022-08-27T00:19:45.020Z,8.07
2022-08-27T00:22:15.240Z,8.80
2022-08-27T00:24:49.148Z,8.02
2022-08-27T00:27:19.318Z,8.77
2022-08-27T00:29:49.090Z,8.40
2022-08-27T00:32:18.256Z,8.68
2022-08-27T00:34:46.887Z,8.48
2022-08-27T00:37:16.820Z,8.50
2022-08-27T00:39:45.462Z,7.72
2022-08-27T00:42:14.475Z,8.82
2022-08-27T00:44:43.761Z,7.78
2022-08-27T00:47:15.451Z,7.95
2022-08-27T00:49:49.074Z,7.50
2022-08-27T00:52:23.699Z,8.10
2022-08-27T00:54:55.053Z,7.68
2022-08-27T00:57:24.281Z,8.55
2022-08-27T00:59:53.082Z,8.75
2022-08-27T01:02:26.077Z,7.72
2022-08-27T01:04:59.978Z,7.68
2022-08-27T01:07:32.191Z,7.95
2022-08-27T01:10:04.350Z,8.00
2022-08-27T01:12:35.368Z,8.52
2022-08-27T01:15:10.072Z,8.68
2022-08-27T01:17:42.333Z,8.57
2022-08-27T01:20:16.506Z,7.85
2022-08-27T01:22:54.734Z,8.10
2022-08-27T01:25:26.608Z,8.48
2022-08-27T01:27:58.725Z,8.07
2022-08-27T01:30:28.098Z,8.70
2022-08-27T01:32:57.132Z,9.02
2022-08-27T01:35:26.450Z,8.68
2022-08-27T01:37:57.157Z,9.02
2022-08-27T01:40:27.303Z,8.13
2022-08-27T01:42:58.258Z,8.52
2022-08-27T01:45:30.378Z,8.85
2022-08-27T01:47:59.751Z,8.60
2022-08-27T01:50:31.811Z,9.35
2022-08-27T01:53:04.264Z,8.70
2022-08-27T01:55:34.622Z,9.77
2022-08-27T01:58:03.611Z,9.50
2022-08-27T02:00:36.437Z,8.63
2022-08-27T02:03:06.610Z,9.35
2022-08-27T02:05:43.800Z,9.50
2022-08-27T02:08:15.983Z,9.52
2022-08-27T02:10:48.182Z,9.32
2022-08-27T02:13:17.593Z,8.98
2022-08-27T02:15:46.233Z,9.52
2022-08-27T02:18:14.992Z,9.88
2022-08-27T02:20:45.669Z,9.05
2022-08-27T02:23:14.840Z,9.55
2022-08-27T02:25:43.422Z,9.82
2022-08-27T02:28:13.341Z,9.48
2022-08-27T02:30:42.036Z,9.60
2022-08-27T02:33:11.049Z,9.60
2022-08-27T02:35:42.189Z,9.38
2022-08-27T02:38:12.715Z,9.57
2022-08-27T02:40:41.947Z,9.50
2022-08-27T02:43:12.294Z,9.93
2022-08-27T02:45:46.126Z,9.52
2022-08-27T02:48:15.039Z,9.68
2022-08-27T02:50:45.359Z,9.77
2022-08-27T02:53:14.659Z,9.82
2022-08-27T02:55:43.508Z,10.55
2022-08-27T02:58:15.475Z,10.23
2022-08-27T03:00:46.410Z,9.77
2022-08-27T03:03:15.483Z,9.88
2022-08-27T03:05:44.587Z,10.23
2022-08-27T03:08:13.468Z,10.18
2022-08-27T03:10:42.452Z,10.57
2022-08-27T03:13:11.397Z,10.30
2022-08-27T03:15:40.164Z,10.32
2022-08-27T03:18:23.692Z,10.93
2022-08-27T03:20:54.056Z,10.60
2022-08-27T03:23:25.082Z,11.10
2022-08-27T03:25:55.820Z,10.57
2022-08-27T03:28:26.679Z,10.23
2022-08-27T03:30:58.523Z,9.55
2022-08-27T03:33:29.224Z,10.15
2022-08-27T03:35:58.036Z,10.48
2022-08-27T03:38:26.806Z,10.45
2022-08-27T03:40:55.871Z,10.38
2022-08-27T03:43:25.203Z,10.45
2022-08-27T03:46:00.770Z,9.90
2022-08-27T03:48:32.798Z,10.40
2022-08-27T03:51:06.703Z,11.43
2022-08-27T03:53:36.713Z,10.57
2022-08-27T03:56:07.354Z,10.02
2022-08-27T03:58:37.392Z,10.48
2022-08-27T04:01:08.700Z,10.25
2022-08-27T04:03:39.586Z,10.65
2022-08-27T04:06:08.982Z,10.25
2022-08-27T04:08:37.781Z,9.15
2022-08-27T04:11:07.472Z,9.77
2022-08-27T04:13:36.370Z,10.10
2022-08-27T04:16:07.417Z,8.98
2022-08-27T04:18:36.300Z,10.60
2022-08-27T04:21:12.983Z,10.18
2022-08-27T04:23:42.959Z,9.75
2022-08-27T04:26:12.796Z,9.95
2022-08-27T04:28:41.723Z,10.05
2022-08-27T04:31:18.329Z,10.70
2022-08-27T04:33:50.903Z,10.05
2022-08-27T04:36:22.118Z,9.85
2022-08-27T04:38:50.898Z,10.18
2022-08-27T04:41:23.055Z,9.85
2022-08-27T04:43:54.414Z,9.88
2022-08-27T04:46:24.397Z,8.93
2022-08-27T04:48:53.890Z,9.45
2022-08-27T04:51:24.997Z,9.38
2022-08-27T04:53:54.161Z,9.55
2022-08-27T04:56:24.385Z,8.85
2022-08-27T04:58:53.103Z,8.52
2022-08-27T05:01:24.127Z,8.85
2022-08-27T05:03:53.098Z,9.45
2022-08-27T05:06:24.342Z,8.98
2022-08-27T05:08:53.855Z,9.57
2022-08-27T05:11:23.791Z,9.15
2022-08-27T05:13:52.542Z,9.38
2022-08-27T05:16:24.478Z,8.77
2022-08-27T05:18:54.479Z,8.98
2022-08-27T05:21:27.737Z,8.73
2022-08-27T05:23:58.775Z,9.50
2022-08-27T05:26:27.864Z,10.32
2022-08-27T05:28:56.632Z,9.82
2022-08-27T05:31:25.513Z,9.50
2022-08-27T05:33:56.268Z,9.25
2022-08-27T05:36:30.022Z,9.00
2022-08-27T05:39:00.850Z,9.75
2022-08-27T05:41:34.185Z,9.52
2022-08-27T05:44:24.108Z,9.32
2022-08-27T05:46:54.416Z,8.60
2022-08-27T05:49:22.948Z,8.23
2022-08-27T05:51:52.936Z,7.97
2022-08-27T05:54:21.516Z,8.90
2022-08-27T05:56:50.732Z,8.23
2022-08-27T05:59:37.159Z,8.40
2022-08-27T06:02:07.357Z,8.18
2022-08-27T06:04:37.459Z,8.45
2022-08-27T06:07:09.780Z,9.68
2022-08-27T06:09:39.639Z,8.57
2022-08-27T06:12:09.662Z,8.43
2022-08-27T06:14:39.041Z,8.63
2022-08-27T06:17:07.763Z,7.75
2022-08-27T06:19:36.591Z,8.23
2022-08-27T06:22:10.626Z,7.97
2022-08-27T06:24:41.132Z,8.48
2022-08-27T06:27:11.455Z,7.95
2022-08-27T06:29:40.678Z,8.38
2022-08-27T06:32:09.928Z,8.50
2022-08-27T06:34:39.252Z,9.23
2022-08-27T06:37:09.858Z,8.77
2022-08-27T06:39:39.412Z,9.38
2022-08-27T06:42:12.133Z,9.48
2022-08-27T06:44:42.174Z,8.25
2022-08-27T06:47:11.065Z,8.55
2022-08-27T06:49:41.677Z,8.15
2022-08-27T06:52:16.971Z,9.02
2022-08-27T06:54:45.807Z,8.63
2022-08-27T06:57:14.345Z,7.97
2022-08-27T06:59:43.421Z,8.15
2022-08-27T07:02:12.473Z,8.70
2022-08-27T07:04:41.136Z,8.95
2022-08-27T07:07:13.755Z,8.02
2022-08-27T07:09:44.094Z,9.43
2022-08-27T07:12:12.880Z,8.40
2022-08-27T07:14:42.208Z,8.40
2022-08-27T07:17:16.428Z,8.10
2022-08-27T07:19:46.497Z,8.43
2022-08-27T07:22:15.302Z,7.82
2022-08-27T07:24:45.757Z,8.00
2022-08-27T07:27:14.542Z,8.18
2022-08-27T07:29:43.252Z,7.68
2022-08-27T07:32:12.066Z,7.50
2022-08-27T07:34:40.786Z,8.32
2022-08-27T07:37:09.663Z,7.72
2022-08-27T07:39:38.565Z,7.43
2022-08-27T07:42:26.421Z,9.68
2022-08-27T07:44:55.475Z,7.88
2022-08-27T07:47:24.295Z,7.50
2022-08-27T07:49:53.465Z,8.32
2022-08-27T07:52:26.326Z,8.38
2022-08-27T07:54:55.462Z,7.68
2022-08-27T07:57:25.937Z,7.07
2022-08-27T07:59:55.045Z,8.10
2022-08-27T08:02:23.996Z,6.93
2022-08-27T08:04:52.927Z,7.20
2022-08-27T08:07:21.952Z,7.43
2022-08-27T08:09:50.635Z,8.07
2022-08-27T08:12:19.480Z,7.22
2022-08-27T08:14:58.110Z,6.43
2022-08-27T08:17:27.337Z,7.28
2022-08-27T08:20:18.582Z,7.03
2022-08-27T08:22:47.968Z,7.78
2022-08-27T08:25:16.929Z,6.72
2022-08-27T08:27:46.045Z,6.60
2022-08-27T08:30:16.841Z,7.13
2022-08-27T08:32:45.763Z,6.40
2022-08-27T08:35:14.858Z,6.70
2022-08-27T08:37:44.559Z,7.63
2022-08-27T08:40:26.922Z,6.38
2022-08-27T08:42:57.320Z,6.85
2022-08-27T08:45:32.410Z,6.43
2022-08-27T08:48:07.344Z,5.93
2022-08-27T08:50:40.458Z,6.47
2022-08-27T08:53:20.051Z,6.18
2022-08-27T08:55:56.154Z,6.30
2022-08-27T08:58:34.631Z,6.10
2022-08-27T09:01:08.624Z,6.38
2022-08-27T09:03:42.037Z,6.38
2022-08-27T09:06:20.307Z,5.95
2022-08-27T09:08:49.535Z,5.65
2022-08-27T09:11:27.978Z,5.80
2022-08-27T09:14:00.142Z,5.60
2022-08-27T09:16:32.469Z,5.35
2022-08-27T09:19:06.188Z,5.50
2022-08-27T09:21:49.524Z,5.88
2022-08-27T09:24:28.359Z,6.63
2022-08-27T09:26:57.875Z,6.20
2022-08-27T09:29:29.335Z,6.20
2022-08-27T09:32:05.406Z,6.05
2022-08-27T09:34:37.634Z,6.20
2022-08-27T09:37:09.972Z,5.93
2022-08-27T09:39:48.534Z,5.78
2022-08-27T09:42:31.934Z,6.00
2022-08-27T09:45:00.846Z,5.50
2022-08-27T09:47:31.330Z,5.72
2022-08-27T09:50:09.291Z,5.20
2022-08-27T09:52:49.106Z,5.88
2022-08-27T09:55:28.687Z,5.60
2022-08-27T09:57:58.306Z,5.80
2022-08-27T10:00:36.471Z,5.88
2022-08-27T10:03:08.839Z,5.22
2022-08-27T10:05:43.887Z,5.20
2022-08-27T10:08:23.497Z,5.90
2022-08-27T10:10:57.474Z,5.25
2022-08-27T10:13:31.988Z,5.47
2022-08-27T10:16:31.103Z,5.13
2022-08-27T10:19:27.754Z,5.15
2022-08-27T10:22:02.530Z,6.97
2022-08-27T10:24:37.056Z,5.10
2022-08-27T10:27:19.455Z,5.43
2022-08-27T10:29:57.819Z,5.47
2022-08-27T10:32:43.881Z,5.10
2022-08-27T10:35:20.966Z,4.97
2022-08-27T10:37:59.572Z,5.13
2022-08-27T10:40:33.498Z,5.55
2022-08-27T10:43:14.018Z,5.13
2022-08-27T10:45:49.243Z,4.90
2022-08-27T10:48:27.000Z,5.13
2022-08-27T10:51:05.193Z,5.38
2022-08-27T10:53:40.480Z,4.82
2022-08-27T10:56:22.314Z,6.18
2022-08-27T10:59:03.612Z,4.53
2022-08-27T11:01:43.369Z,3.95
2022-08-27T11:04:17.210Z,4.43
2022-08-27T11:06:54.378Z,4.20
2022-08-27T11:09:28.206Z,4.55
2022-08-27T11:12:15.730Z,4.43
2022-08-27T11:14:51.069Z,4.63
2022-08-27T11:17:32.059Z,4.63
2022-08-27T11:20:07.975Z,5.45
2022-08-27T11:22:42.936Z,4.10
2022-08-27T11:25:28.555Z,4.90
2022-08-27T11:27:59.229Z,4.40
2022-08-27T11:30:37.684Z,4.57
2022-08-27T11:33:14.365Z,4.18
2022-08-27T11:35:53.084Z,4.63
2022-08-27T11:38:42.039Z,4.43
2022-08-27T11:41:29.122Z,4.30
2022-08-27T11:44:00.095Z,4.55
2022-08-27T11:46:39.249Z,5.07
2022-08-27T11:49:08.216Z,4.18
2022-08-27T11:51:39.333Z,5.05
2022-08-27T11:54:11.879Z,4.00
2022-08-27T11:56:44.130Z,4.00
2022-08-27T11:59:22.465Z,4.43
2022-08-27T12:01:52.759Z,4.07
2022-08-27T12:04:33.442Z,4.70
2022-08-27T12:07:05.676Z,5.07
2022-08-27T12:09:57.984Z,4.45
2022-08-27T12:12:36.162Z,4.10
2022-08-27T12:15:09.105Z,4.82
2022-08-27T12:17:45.066Z,4.40
2022-08-27T12:20:24.324Z,4.60
2022-08-27T12:23:32.420Z,4.32
2022-08-27T12:26:18.964Z,4.50
2022-08-27T12:28:48.046Z,4.57
2022-08-27T12:31:20.833Z,4.35
2022-08-27T12:33:52.558Z,4.75
2022-08-27T12:36:28.120Z,4.55
2022-08-27T12:38:59.445Z,4.22
2022-08-27T12:41:44.111Z,4.00
2022-08-27T12:44:16.691Z,4.50
2022-08-27T12:46:49.786Z,4.50
2022-08-27T12:49:39.111Z,4.43
2022-08-27T12:52:20.346Z,5.15
2022-08-27T12:55:05.071Z,4.40
2022-08-27T12:57:43.340Z,3.60
2022-08-27T13:00:18.906Z,4.68
2022-08-27T13:03:13.732Z,4.13
2022-08-27T13:05:44.583Z,4.20
2022-08-27T13:08:21.626Z,3.92
2022-08-27T13:10:51.381Z,4.80
2022-08-27T13:13:23.954Z,4.03
2022-08-27T13:15:56.618Z,4.45
2022-08-27T13:18:29.924Z,4.40
2022-08-27T13:21:04.938Z,4.20
2022-08-27T13:23:35.286Z,4.80
2022-08-27T13:26:08.991Z,5.95
2022-08-27T13:28:42.319Z,4.40
2022-08-27T13:31:12.654Z,3.88
2022-08-27T13:33:42.590Z,4.60
2022-08-27T13:36:12.322Z,4.20
2022-08-27T13:38:47.845Z,4.50
2022-08-27T13:41:25.815Z,4.45
2022-08-27T13:43:59.352Z,3.72
2022-08-27T13:46:31.049Z,5.47
2022-08-27T13:49:01.555Z,4.00
2022-08-27T13:51:32.815Z,5.70
2022-08-27T13:54:15.871Z,3.70
2022-08-27T13:57:03.619Z,4.10
2022-08-27T13:59:33.981Z,3.90
2022-08-27T14:02:17.034Z,4.10
2022-08-27T14:04:48.790Z,4.30
2022-08-27T14:07:27.125Z,3.97
2022-08-27T14:09:59.354Z,4.15
2022-08-27T14:12:33.333Z,3.60
2022-08-27T14:15:19.503Z,3.78
2022-08-27T14:17:49.192Z,4.13
2022-08-27T14:20:20.474Z,3.92
2022-08-27T14:22:49.855Z,3.95
2022-08-27T14:25:21.506Z,3.95
2022-08-27T14:27:54.375Z,4.07
2022-08-27T14:30:29.276Z,5.22
2022-08-27T14:33:00.439Z,3.47
2022-08-27T14:35:31.064Z,5.03
2022-08-27T14:38:01.025Z,3.63
2022-08-27T14:40:30.020Z,3.80
2022-08-27T14:42:59.031Z,3.97
2022-08-27T14:45:29.165Z,3.67
2022-08-27T14:48:02.052Z,4.07
2022-08-27T14:50:31.614Z,3.90
2022-08-27T14:53:00.558Z,3.83
2022-08-27T14:55:30.768Z,4.78
2022-08-27T14:57:59.834Z,3.78
2022-08-27T15:00:30.411Z,3.47
2022-08-27T15:02:59.236Z,3.70
2022-08-27T15:05:27.958Z,3.80
2022-08-27T15:07:58.217Z,3.85
2022-08-27T15:10:27.548Z,4.00
2022-08-27T15:12:56.358Z,4.43
2022-08-27T15:15:25.236Z,5.75
2022-08-27T15:17:55.575Z,3.45
2022-08-27T15:20:24.344Z,3.97
2022-08-27T15:22:54.187Z,4.50
2022-08-27T15:25:23.488Z,3.47
2022-08-27T15:27:52.431Z,3.75
2022-08-27T15:30:26.926Z,4.65
2022-08-27T15:32:57.141Z,4.10
2022-08-27T15:35:27.952Z,4.07
2022-08-27T15:37:58.518Z,6.40
2022-08-27T15:40:29.604Z,4.10
2022-08-27T15:43:02.177Z,4.28
2022-08-27T15:45:32.393Z,4.20
2022-08-27T15:48:03.131Z,3.92
2022-08-27T15:50:32.642Z,4.22
2022-08-27T15:53:04.430Z,4.68
2022-08-27T15:55:36.363Z,4.70
2022-08-27T15:58:06.445Z,4.65
2022-08-27T16:00:36.643Z,4.47
2022-08-27T16:03:10.626Z,4.78
2022-08-27T16:05:42.236Z,4.90
2022-08-27T16:08:11.521Z,4.53
2022-08-27T16:10:40.673Z,4.20
2022-08-27T16:13:09.221Z,4.82
2022-08-27T16:15:40.618Z,4.13
2022-08-27T16:18:11.580Z,4.38
2022-08-27T16:20:41.374Z,4.30
2022-08-27T16:23:09.978Z,6.70
2022-08-27T16:25:38.508Z,4.85
2022-08-27T16:28:07.657Z,4.57
2022-08-27T16:30:36.458Z,4.30
2022-08-27T16:33:05.484Z,4.72
2022-08-27T16:35:35.989Z,5.30
2022-08-27T16:38:05.571Z,4.57
2022-08-27T16:40:37.317Z,5.22
2022-08-27T16:43:06.306Z,4.57
2022-08-27T16:45:35.355Z,5.88
2022-08-27T16:48:21.904Z,5.63
2022-08-27T16:50:51.947Z,9.65
2022-08-27T16:53:22.632Z,5.50
2022-08-27T16:55:51.906Z,5.60
2022-08-27T16:58:22.754Z,6.10
2022-08-27T17:00:53.621Z,7.47
2022-08-27T17:03:23.987Z,6.90
2022-08-27T17:05:54.057Z,6.43
2022-08-27T17:08:26.262Z,8.15
2022-08-27T17:10:57.482Z,6.80
2022-08-27T17:13:29.177Z,7.15
2022-08-27T17:15:58.159Z,25.52
2022-08-27T17:18:28.288Z,14.57
2022-08-27T17:21:00.158Z,12.60
2022-08-27T17:23:33.626Z,11.15
2022-08-27T17:26:03.292Z,8.73
2022-08-27T17:28:32.250Z,8.70
2022-08-27T17:31:02.504Z,7.55
2022-08-27T17:33:33.482Z,7.00
2022-08-27T17:36:06.078Z,6.88
2022-08-27T17:38:37.665Z,6.50
2022-08-27T17:41:12.028Z,6.07
2022-08-27T17:43:42.047Z,6.20
2022-08-27T17:46:12.043Z,6.53
2022-08-27T17:48:40.732Z,6.18
2022-08-27T17:51:12.178Z,6.38
2022-08-27T17:53:47.126Z,6.60
2022-08-27T17:56:16.303Z,8.05
2022-08-27T17:58:45.166Z,7.45
2022-08-27T18:01:14.213Z,7.50
2022-08-27T18:03:44.908Z,7.00
2022-08-27T18:06:19.063Z,7.03
2022-08-27T18:08:47.899Z,7.60
2022-08-27T18:11:16.845Z,7.25
2022-08-27T18:13:48.670Z,7.78
2022-08-27T18:16:17.258Z,7.07
2022-08-27T18:18:45.813Z,7.45
2022-08-27T18:21:25.213Z,7.55
2022-08-27T18:23:55.801Z,6.82
2022-08-27T18:26:28.778Z,7.28
2022-08-27T18:28:58.038Z,12.30
2022-08-27T18:31:30.238Z,8.30
2022-08-27T18:34:00.130Z,8.25
2022-08-27T18:36:31.038Z,8.55
2022-08-27T18:39:00.940Z,8.35
2022-08-27T18:41:31.634Z,8.07
2022-08-27T18:44:00.433Z,8.32
2022-08-27T18:46:29.314Z,8.35
2022-08-27T18:48:57.909Z,7.70
2022-08-27T18:51:26.485Z,8.40
2022-08-27T18:54:01.540Z,9.20
2022-08-27T18:56:30.322Z,9.15
2022-08-27T18:58:59.105Z,11.07
2022-08-27T19:01:29.094Z,17.60
2022-08-27T19:03:58.244Z,14.05
2022-08-27T19:06:28.522Z,13.60
2022-08-27T19:08:58.290Z,12.27
2022-08-27T19:11:28.461Z,13.40
2022-08-27T19:13:57.021Z,12.50
2022-08-27T19:16:35.082Z,14.00
2022-08-27T19:19:05.587Z,12.15
2022-08-27T19:21:34.604Z,12.48
2022-08-27T19:24:04.261Z,12.82
2022-08-27T19:26:34.267Z,12.63
2022-08-27T19:29:03.066Z,12.77
2022-08-27T19:31:33.399Z,12.38
2022-08-27T19:34:04.786Z,13.10
2022-08-27T19:36:34.788Z,13.30
2022-08-27T19:39:03.831Z,13.60
2022-08-27T19:41:33.867Z,14.90
2022-08-27T19:44:02.653Z,13.07
2022-08-27T19:46:32.803Z,14.52
2022-08-27T19:49:02.101Z,14.23
2022-08-27T19:51:30.811Z,15.02
2022-08-27T19:53:59.634Z,14.80
2022-08-27T19:56:32.480Z,15.45
2022-08-27T19:59:14.551Z,15.85
2022-08-27T20:01:50.254Z,14.02
2022-08-27T20:04:19.122Z,12.85
2022-08-27T20:06:48.047Z,12.73
2022-08-27T20:09:18.517Z,16.63
2022-08-27T20:11:48.035Z,16.00
2022-08-27T20:14:19.459Z,12.75
2022-08-27T20:16:49.013Z,15.68
2022-08-27T20:19:18.605Z,14.40
2022-08-27T20:21:47.395Z,12.60
2022-08-27T20:24:16.398Z,11.15
2022-08-27T20:26:45.395Z,11.68
2022-08-27T20:29:15.078Z,11.52
2022-08-27T20:32:04.301Z,11.52
2022-08-27T20:34:34.588Z,10.23
2022-08-27T20:37:05.392Z,11.05
2022-08-27T20:39:34.398Z,12.57
2022-08-27T20:42:03.348Z,13.70
2022-08-27T20:44:32.867Z,14.60
2022-08-27T20:47:03.501Z,12.65
2022-08-27T20:49:35.224Z,14.25
2022-08-27T20:52:06.662Z,13.50
2022-08-27T20:54:37.560Z,13.25
2022-08-27T20:57:06.971Z,13.45
2022-08-27T21:00:01.824Z,13.77
2022-08-27T21:02:32.521Z,13.32
2022-08-27T21:05:07.667Z,13.13
2022-08-27T21:07:36.485Z,13.23
2022-08-27T21:10:06.691Z,14.05
2022-08-27T21:12:36.611Z,14.40
2022-08-27T21:15:07.396Z,15.00
2022-08-27T21:17:38.153Z,14.85
2022-08-27T21:20:10.968Z,14.98
2022-08-27T21:22:40.551Z,14.07
2022-08-27T21:25:10.842Z,14.77
2022-08-27T21:27:40.080Z,13.63
2022-08-27T21:30:12.058Z,13.70
2022-08-27T21:32:43.047Z,16.00
2022-08-27T21:35:12.174Z,16.23
2022-08-27T21:37:41.862Z,16.13
2022-08-27T21:40:11.878Z,15.40
2022-08-27T21:42:40.852Z,15.70
2022-08-27T21:45:10.316Z,16.08
2022-08-27T21:47:39.190Z,16.17
2022-08-27T21:50:11.265Z,16.90
2022-08-27T21:52:40.558Z,16.80
2022-08-27T21:55:10.345Z,17.15
2022-08-27T21:57:39.308Z,15.65
2022-08-27T22:00:17.604Z,15.90
2022-08-27T22:02:46.556Z,16.20
2022-08-27T22:05:17.208Z,15.48
2022-08-27T22:07:46.106Z,15.75
2022-08-27T22:10:15.249Z,16.30
2022-08-27T22:12:44.167Z,16.73
2022-08-27T22:15:13.438Z,17.13
2022-08-27T22:17:42.208Z,15.90
2022-08-27T22:20:11.865Z,17.08
2022-08-27T22:22:42.050Z,16.58
2022-08-27T22:25:11.123Z,16.50
2022-08-27T22:27:41.501Z,16.75
2022-08-27T22:30:11.964Z,17.13
2022-08-27T22:32:41.894Z,17.45
2022-08-27T22:35:13.290Z,19.27
2022-08-27T22:37:44.393Z,18.80
2022-08-27T22:40:19.132Z,18.00
2022-08-27T22:42:49.112Z,18.20
2022-08-27T22:45:19.146Z,17.17
2022-08-27T22:47:48.453Z,18.98
2022-08-27T22:50:17.865Z,18.17
2022-08-27T22:52:49.278Z,18.17
2022-08-27T22:55:20.773Z,19.17
2022-08-27T22:57:50.398Z,19.05
2022-08-27T23:00:23.203Z,18.92
2022-08-27T23:02:52.080Z,19.33
2022-08-27T23:05:21.220Z,17.92
2022-08-27T23:07:51.719Z,18.13
2022-08-27T23:10:24.139Z,17.63
2022-08-27T23:12:54.163Z,18.50
2022-08-27T23:15:28.506Z,19.15
2022-08-27T23:17:58.107Z,18.85
2022-08-27T23:20:27.793Z,19.15
2022-08-27T23:22:58.372Z,18.27
2022-08-27T23:25:45.650Z,19.35
2022-08-27T23:28:15.634Z,18.92
2022-08-27T23:30:46.033Z,19.08
2022-08-27T23:33:15.907Z,17.77
2022-08-27T23:35:48.226Z,18.65
2022-08-27T23:38:19.813Z,18.30
2022-08-27T23:40:50.409Z,18.55
2022-08-27T23:43:19.845Z,16.67
2022-08-27T23:45:50.754Z,18.27
2022-08-27T23:48:20.164Z,18.70
2022-08-27T23:50:49.099Z,19.83
2022-08-27T23:53:19.385Z,20.23
2022-08-27T23:55:48.255Z,19.33
2022-08-27T23:58:17.231Z,21.35
